createdAt,value
2023-05-04T00:00:29.062Z,62.60
2023-05-04T00:03:14.813Z,63.14
2023-05-04T00:05:41.968Z,63.32
2023-05-04T00:08:09.226Z,63.73
2023-05-04T00:10:36.198Z,64.27
2023-05-04T00:13:03.530Z,64.52
2023-05-04T00:15:30.544Z,64.45
2023-05-04T00:17:57.963Z,64.81
2023-05-04T00:20:25.110Z,65.55
2023-05-04T00:22:52.532Z,65.67
2023-05-04T00:25:19.519Z,66.24
2023-05-04T00:27:47.036Z,66.83
2023-05-04T00:30:14.288Z,66.88
2023-05-04T00:32:41.721Z,67.31
2023-05-04T00:35:09.214Z,67.79
2023-05-04T00:37:36.739Z,68.33
2023-05-04T00:40:04.036Z,68.38
2023-05-04T00:42:31.890Z,68.02
2023-05-04T00:44:58.738Z,67.53
2023-05-04T00:47:26.664Z,67.08
2023-05-04T00:49:53.618Z,66.76
2023-05-04T00:52:21.797Z,66.56
2023-05-04T00:54:48.899Z,66.43
2023-05-04T00:57:17.407Z,66.80
2023-05-04T00:59:44.260Z,66.96
2023-05-04T01:02:11.876Z,66.90
2023-05-04T01:04:39.275Z,67.05
2023-05-04T01:07:21.213Z,67.27
2023-05-04T01:10:00.009Z,68.43
2023-05-04T01:12:36.113Z,69.18
2023-05-04T01:15:03.973Z,69.49
2023-05-04T01:17:31.471Z,70.00
2023-05-04T01:19:59.057Z,70.60
2023-05-04T01:22:26.737Z,70.91
2023-05-04T01:24:55.197Z,71.18
2023-05-04T01:27:36.306Z,71.94
2023-05-04T01:30:11.180Z,72.97
2023-05-04T01:32:41.629Z,73.47
2023-05-04T01:35:09.914Z,73.93
2023-05-04T01:37:37.268Z,73.87
2023-05-04T01:40:05.627Z,74.31
2023-05-04T01:42:33.017Z,74.54
2023-05-04T01:45:00.226Z,74.91
2023-05-04T01:47:27.517Z,75.37
2023-05-04T01:49:54.699Z,75.59
2023-05-04T01:52:21.827Z,76.09
2023-05-04T01:54:48.924Z,76.45
2023-05-04T01:57:16.206Z,76.77
2023-05-04T01:59:43.452Z,76.90
2023-05-04T02:02:10.924Z,77.46
2023-05-04T02:04:38.562Z,78.07
2023-05-04T02:07:06.147Z,78.37
2023-05-04T02:09:33.733Z,78.71
2023-05-04T02:12:01.236Z,79.16
2023-05-04T02:14:29.243Z,79.53
2023-05-04T02:16:56.617Z,79.50
2023-05-04T02:19:23.993Z,79.91
2023-05-04T02:21:52.453Z,80.19
2023-05-04T02:24:22.099Z,80.51
2023-05-04T02:26:49.849Z,81.44
2023-05-04T02:29:16.891Z,81.61
2023-05-04T02:31:45.112Z,81.64
2023-05-04T02:34:14.232Z,81.92
2023-05-04T02:36:47.392Z,82.35
2023-05-04T02:39:14.824Z,82.38
2023-05-04T02:41:42.110Z,82.74
2023-05-04T02:44:09.477Z,82.98
2023-05-04T02:46:36.701Z,83.08
2023-05-04T02:49:04.189Z,83.10
2023-05-04T02:51:31.499Z,83.44
2023-05-04T02:53:58.712Z,83.12
2023-05-04T02:56:26.048Z,82.71
2023-05-04T02:58:53.181Z,82.67
2023-05-04T03:01:20.535Z,82.80
2023-05-04T03:03:47.787Z,82.94
2023-05-04T03:06:15.345Z,82.92
2023-05-04T03:08:42.340Z,82.87
2023-05-04T03:11:09.909Z,83.03
2023-05-04T03:13:37.333Z,82.80
2023-05-04T03:16:05.896Z,82.94
2023-05-04T03:18:33.080Z,82.50
2023-05-04T03:21:02.027Z,82.61
2023-05-04T03:23:29.784Z,82.61
2023-05-04T03:25:57.186Z,82.39
2023-05-04T03:28:24.780Z,82.30
2023-05-04T03:30:52.344Z,82.09
2023-05-04T03:33:21.257Z,81.97
2023-05-04T03:35:48.819Z,81.87
2023-05-04T03:38:16.718Z,81.83
2023-05-04T03:40:44.752Z,81.51
2023-05-04T03:43:12.956Z,81.05
2023-05-04T03:45:40.554Z,80.96
2023-05-04T03:48:07.632Z,80.40
2023-05-04T03:50:35.954Z,80.35
2023-05-04T03:53:03.036Z,79.65
2023-05-04T03:55:31.503Z,79.43
2023-05-04T03:57:58.424Z,79.26
2023-05-04T04:00:27.233Z,78.70
2023-05-04T04:03:02.426Z,78.03
2023-05-04T04:05:30.235Z,77.46
2023-05-04T04:07:57.606Z,76.67
2023-05-04T04:10:25.192Z,76.40
2023-05-04T04:12:53.888Z,76.33
2023-05-04T04:15:21.172Z,76.09
2023-05-04T04:17:48.206Z,75.93
2023-05-04T04:20:16.110Z,76.22
2023-05-04T04:22:43.215Z,76.09
2023-05-04T04:25:10.765Z,75.37
2023-05-04T04:27:37.989Z,74.84
2023-05-04T04:30:05.982Z,74.88
2023-05-04T04:32:34.237Z,74.75
2023-05-04T04:35:01.647Z,74.71
2023-05-04T04:37:29.156Z,74.63
2023-05-04T04:39:56.411Z,74.85
2023-05-04T04:42:23.709Z,75.14
2023-05-04T04:44:52.395Z,75.29
2023-05-04T04:47:19.738Z,74.77
2023-05-04T04:49:47.858Z,72.84
2023-05-04T04:52:15.677Z,72.76
2023-05-04T04:54:43.038Z,72.53
2023-05-04T04:57:10.813Z,72.18
2023-05-04T04:59:38.234Z,70.27
2023-05-04T05:02:05.237Z,68.81
2023-05-04T05:04:32.616Z,68.25
2023-05-04T05:07:00.053Z,66.34
2023-05-04T05:09:27.192Z,65.60
2023-05-04T05:11:54.492Z,60.92
2023-05-04T05:14:21.806Z,61.73
2023-05-04T05:16:49.016Z,62.00
2023-05-04T05:19:16.425Z,60.87
2023-05-04T05:21:43.542Z,61.25
2023-05-04T05:24:11.080Z,60.36
2023-05-04T05:26:38.156Z,60.40
2023-05-04T05:29:06.170Z,59.56
2023-05-04T05:31:33.550Z,60.67
2023-05-04T05:34:01.563Z,60.30
2023-05-04T05:36:28.935Z,60.08
2023-05-04T05:38:56.288Z,60.42
2023-05-04T05:41:24.071Z,59.56
2023-05-04T05:43:51.916Z,59.91
2023-05-04T05:46:19.239Z,59.58
2023-05-04T05:48:46.614Z,57.90
2023-05-04T05:51:13.944Z,57.38
2023-05-04T05:53:42.817Z,57.32
2023-05-04T05:56:10.331Z,57.16
2023-05-04T05:58:37.920Z,57.11
2023-05-04T06:01:05.399Z,56.76
2023-05-04T06:03:33.802Z,56.36
2023-05-04T06:06:01.476Z,56.15
2023-05-04T06:08:29.440Z,55.72
2023-05-04T06:10:56.862Z,55.67
2023-05-04T06:13:24.321Z,54.91
2023-05-04T06:15:54.770Z,54.94
2023-05-04T06:18:22.697Z,55.03
2023-05-04T06:20:50.386Z,54.17
2023-05-04T06:23:17.969Z,54.79
2023-05-04T06:25:44.824Z,52.85
2023-05-04T06:28:12.932Z,53.55
2023-05-04T06:30:39.786Z,52.59
2023-05-04T06:33:07.970Z,52.61
2023-05-04T06:35:35.227Z,52.13
2023-05-04T06:38:03.226Z,52.45
2023-05-04T06:40:30.514Z,53.08
2023-05-04T06:42:58.407Z,52.88
2023-05-04T06:45:25.630Z,52.79
2023-05-04T06:47:53.383Z,51.85
2023-05-04T06:50:20.359Z,51.55
2023-05-04T06:52:47.789Z,50.14
2023-05-04T06:55:14.701Z,48.63
2023-05-04T06:57:42.354Z,47.03
2023-05-04T07:00:10.715Z,47.07
2023-05-04T07:02:38.270Z,46.43
2023-05-04T07:05:05.803Z,46.50
2023-05-04T07:07:33.615Z,46.37
2023-05-04T07:10:00.765Z,47.05
2023-05-04T07:12:28.968Z,45.24
2023-05-04T07:14:56.997Z,45.21
2023-05-04T07:17:25.671Z,44.67
2023-05-04T07:19:53.383Z,44.73
2023-05-04T07:22:21.416Z,44.61
2023-05-04T07:24:48.448Z,44.93
2023-05-04T07:27:16.359Z,44.66
2023-05-04T07:29:44.025Z,43.41
2023-05-04T07:32:11.831Z,42.20
2023-05-04T07:34:45.765Z,42.14
2023-05-04T07:37:15.491Z,42.16
2023-05-04T07:39:42.967Z,42.11
2023-05-04T07:42:11.851Z,42.25
2023-05-04T07:44:39.752Z,42.67
2023-05-04T07:47:07.086Z,42.65
2023-05-04T07:49:34.622Z,40.47
2023-05-04T07:52:03.753Z,40.57
2023-05-04T07:54:30.902Z,40.53
2023-05-04T07:56:58.056Z,40.43
2023-05-04T07:59:25.167Z,41.23
2023-05-04T08:01:52.756Z,41.28
2023-05-04T08:04:19.997Z,41.58
2023-05-04T08:06:49.426Z,40.79
2023-05-04T08:09:19.104Z,40.99
2023-05-04T08:11:47.545Z,39.97
2023-05-04T08:14:15.430Z,39.09
2023-05-04T08:16:42.721Z,37.81
2023-05-04T08:19:10.561Z,38.11
2023-05-04T08:21:37.953Z,37.88
2023-05-04T08:24:04.962Z,37.56
2023-05-04T08:26:32.668Z,37.23
2023-05-04T08:29:07.961Z,36.38
2023-05-04T08:31:35.823Z,36.35
2023-05-04T08:34:04.271Z,37.06
2023-05-04T08:36:32.217Z,37.43
2023-05-04T08:38:59.418Z,37.62
2023-05-04T08:41:27.231Z,37.11
2023-05-04T08:43:54.776Z,36.27
2023-05-04T08:46:23.025Z,35.45
2023-05-04T08:48:51.021Z,34.62
2023-05-04T08:51:19.554Z,34.86
2023-05-04T08:53:50.351Z,34.57
2023-05-04T08:56:18.752Z,33.96
2023-05-04T08:58:52.137Z,33.43
2023-05-04T09:01:20.224Z,34.32
2023-05-04T09:03:48.201Z,34.28
2023-05-04T09:06:15.666Z,35.00
2023-05-04T09:08:43.018Z,34.62
2023-05-04T09:11:10.694Z,34.03
2023-05-04T09:13:38.653Z,34.08
2023-05-04T09:16:07.788Z,34.07
2023-05-04T09:18:38.053Z,34.14
2023-05-04T09:21:05.872Z,34.60
2023-05-04T09:23:33.777Z,34.40
2023-05-04T09:26:01.020Z,34.53
2023-05-04T09:28:38.932Z,34.41
2023-05-04T09:31:07.807Z,34.94
2023-05-04T09:33:35.132Z,34.85
2023-05-04T09:36:19.040Z,35.21
2023-05-04T09:38:46.318Z,34.73
2023-05-04T09:41:14.340Z,33.78
2023-05-04T09:43:43.884Z,33.43
2023-05-04T09:46:21.348Z,33.02
2023-05-04T09:48:52.652Z,32.82
2023-05-04T09:51:22.708Z,33.81
2023-05-04T09:53:50.679Z,33.70
2023-05-04T09:56:58.807Z,32.68
2023-05-04T09:59:31.793Z,32.96
2023-05-04T10:02:04.834Z,32.53
2023-05-04T10:04:43.592Z,32.41
2023-05-04T10:07:10.949Z,32.55
2023-05-04T10:09:39.512Z,32.60
2023-05-04T10:12:08.869Z,32.40
2023-05-04T10:14:36.428Z,32.75
2023-05-04T10:17:34.611Z,32.26
2023-05-04T10:20:17.958Z,31.80
2023-05-04T10:23:03.734Z,31.86
2023-05-04T10:25:55.353Z,31.06
2023-05-04T10:28:48.024Z,31.27
2023-05-04T10:31:15.929Z,31.81
2023-05-04T10:33:44.840Z,32.35
2023-05-04T10:36:11.926Z,32.01
2023-05-04T10:38:40.595Z,31.76
2023-05-04T10:41:18.323Z,32.00
2023-05-04T10:43:53.201Z,31.88
2023-05-04T10:46:22.638Z,31.47
2023-05-04T10:48:51.707Z,32.14
2023-05-04T10:51:35.760Z,31.98
2023-05-04T10:54:19.124Z,31.92
2023-05-04T10:56:46.073Z,31.97
2023-05-04T10:59:15.053Z,31.49
2023-05-04T11:01:44.919Z,31.61
2023-05-04T11:04:20.929Z,31.83
2023-05-04T11:07:20.725Z,31.68
2023-05-04T11:09:48.279Z,31.59
2023-05-04T11:12:15.376Z,31.59
2023-05-04T11:14:43.416Z,31.44
2023-05-04T11:17:27.537Z,31.44
2023-05-04T11:19:56.501Z,30.89
2023-05-04T11:22:23.763Z,30.78
2023-05-04T11:24:51.836Z,30.89
2023-05-04T11:27:28.612Z,31.03
2023-05-04T11:29:56.825Z,30.57
2023-05-04T11:32:34.901Z,31.56
2023-05-04T11:35:04.995Z,31.33
2023-05-04T11:37:40.360Z,31.10
2023-05-04T11:40:19.716Z,31.33
2023-05-04T11:42:47.258Z,31.39
2023-05-04T11:45:18.101Z,32.17
2023-05-04T11:47:47.317Z,31.05
2023-05-04T11:50:17.072Z,30.89
2023-05-04T11:52:45.084Z,31.05
2023-05-04T11:55:25.536Z,31.55
2023-05-04T11:58:07.187Z,30.60
2023-05-04T12:00:45.464Z,30.50
2023-05-04T12:03:13.788Z,30.76
2023-05-04T12:05:49.533Z,30.49
2023-05-04T12:08:27.817Z,30.40
2023-05-04T12:11:20.567Z,29.92
2023-05-04T12:13:49.075Z,29.84
2023-05-04T12:16:20.277Z,29.94
2023-05-04T12:18:48.439Z,30.15
2023-05-04T12:21:20.060Z,30.40
2023-05-04T12:23:47.500Z,30.25
2023-05-04T12:26:18.148Z,30.12
2023-05-04T12:28:47.291Z,30.27
2023-05-04T12:31:15.436Z,30.28
2023-05-04T12:33:43.046Z,30.27
2023-05-04T12:36:11.389Z,30.45
2023-05-04T12:38:39.102Z,30.07
2023-05-04T12:41:10.963Z,29.74
2023-05-04T12:43:38.872Z,30.00
2023-05-04T12:46:06.710Z,29.76
2023-05-04T12:48:33.758Z,29.43
2023-05-04T12:51:03.892Z,29.49
2023-05-04T12:53:32.602Z,29.69
2023-05-04T12:56:01.567Z,29.42
2023-05-04T12:58:28.841Z,29.28
2023-05-04T13:00:58.154Z,29.48
2023-05-04T13:03:25.852Z,30.04
2023-05-04T13:05:53.705Z,30.17
2023-05-04T13:08:21.303Z,29.89
2023-05-04T13:10:48.610Z,29.21
2023-05-04T13:13:17.918Z,29.48
2023-05-04T13:15:50.395Z,29.83
2023-05-04T13:18:17.576Z,30.06
2023-05-04T13:20:45.858Z,29.69
2023-05-04T13:23:14.082Z,29.82
2023-05-04T13:25:42.207Z,29.77
2023-05-04T13:28:09.314Z,29.01
2023-05-04T13:30:36.938Z,29.05
2023-05-04T13:33:13.337Z,29.30
2023-05-04T13:35:49.307Z,30.04
2023-05-04T13:38:16.533Z,29.39
2023-05-04T13:40:44.227Z,29.00
2023-05-04T13:43:11.652Z,29.37
2023-05-04T13:45:39.634Z,28.89
2023-05-04T13:48:07.325Z,29.00
2023-05-04T13:50:34.769Z,29.06
2023-05-04T13:53:02.979Z,29.18
2023-05-04T13:55:30.318Z,29.29
2023-05-04T13:57:57.501Z,29.18
2023-05-04T14:00:25.018Z,29.07
2023-05-04T14:02:52.475Z,29.12
2023-05-04T14:05:20.718Z,28.85
2023-05-04T14:07:48.281Z,30.27
2023-05-04T14:10:15.781Z,29.13
2023-05-04T14:12:42.868Z,29.21
2023-05-04T14:15:10.979Z,29.40
2023-05-04T14:17:39.714Z,28.98
2023-05-04T14:20:08.910Z,29.28
2023-05-04T14:22:38.156Z,29.17
2023-05-04T14:25:06.234Z,29.35
2023-05-04T14:27:35.633Z,29.33
2023-05-04T14:30:05.032Z,29.17
2023-05-04T14:32:32.336Z,29.56
2023-05-04T14:35:08.228Z,29.43
2023-05-04T14:37:40.674Z,29.21
2023-05-04T14:40:10.902Z,29.20
2023-05-04T14:42:39.235Z,29.69
2023-05-04T14:45:08.304Z,29.16
2023-05-04T14:47:36.583Z,29.54
2023-05-04T14:50:05.117Z,29.38
2023-05-04T14:52:32.494Z,28.84
2023-05-04T14:54:59.752Z,28.63
2023-05-04T14:57:27.158Z,28.45
2023-05-04T14:59:55.155Z,28.18
2023-05-04T15:02:22.438Z,27.12
2023-05-04T15:04:50.010Z,25.66
2023-05-04T15:07:20.515Z,24.27
2023-05-04T15:09:47.860Z,23.68
2023-05-04T15:12:14.913Z,23.33
2023-05-04T15:14:42.381Z,23.12
2023-05-04T15:17:09.705Z,22.38
2023-05-04T15:19:38.435Z,22.33
2023-05-04T15:22:06.686Z,22.59
2023-05-04T15:24:34.065Z,22.49
2023-05-04T15:27:02.254Z,22.94
2023-05-04T15:29:29.706Z,23.19
2023-05-04T15:31:56.958Z,23.21
2023-05-04T15:34:24.367Z,23.19
2023-05-04T15:36:52.172Z,22.98
2023-05-04T15:39:19.619Z,23.36
2023-05-04T15:41:46.627Z,23.66
2023-05-04T15:44:14.287Z,24.97
2023-05-04T15:46:41.228Z,25.80
2023-05-04T15:49:08.672Z,26.34
2023-05-04T15:51:35.586Z,26.46
2023-05-04T15:54:03.846Z,26.87
2023-05-04T15:56:30.777Z,27.42
2023-05-04T15:58:58.305Z,27.24
2023-05-04T16:01:25.647Z,27.61
2023-05-04T16:03:59.857Z,28.12
2023-05-04T16:06:27.345Z,28.42
2023-05-04T16:08:54.878Z,28.42
2023-05-04T16:11:23.070Z,28.21
2023-05-04T16:13:50.867Z,28.36
2023-05-04T16:16:18.013Z,28.74
2023-05-04T16:18:46.002Z,28.60
2023-05-04T16:21:15.136Z,28.98
2023-05-04T16:23:43.121Z,28.87
2023-05-04T16:26:10.143Z,28.27
2023-05-04T16:28:38.118Z,28.46
2023-05-04T16:31:06.329Z,27.60
2023-05-04T16:33:35.653Z,26.76
2023-05-04T16:36:06.487Z,27.03
2023-05-04T16:38:34.078Z,26.68
2023-05-04T16:41:01.422Z,26.18
2023-05-04T16:43:30.034Z,25.71
2023-05-04T16:45:57.878Z,25.78
2023-05-04T16:48:25.693Z,26.13
2023-05-04T16:50:52.627Z,26.29
2023-05-04T16:53:20.954Z,26.01
2023-05-04T16:55:47.935Z,26.02
2023-05-04T16:58:15.588Z,25.78
2023-05-04T17:00:42.847Z,25.93
2023-05-04T17:03:10.458Z,26.31
2023-05-04T17:05:37.428Z,26.88
2023-05-04T17:08:05.705Z,27.83
2023-05-04T17:10:32.896Z,28.77
2023-05-04T17:13:02.220Z,29.31
2023-05-04T17:15:30.136Z,30.05
2023-05-04T17:17:57.542Z,30.45
2023-05-04T17:20:28.730Z,30.74
2023-05-04T17:22:58.716Z,31.07
2023-05-04T17:25:27.053Z,31.47
2023-05-04T17:27:54.945Z,32.17
2023-05-04T17:30:22.426Z,32.27
2023-05-04T17:32:49.787Z,32.50
2023-05-04T17:35:25.289Z,32.75
2023-05-04T17:37:58.519Z,33.17
2023-05-04T17:40:28.128Z,33.39
2023-05-04T17:42:56.431Z,33.51
2023-05-04T17:45:24.115Z,33.74
2023-05-04T17:47:51.677Z,34.04
2023-05-04T17:50:19.861Z,34.27
2023-05-04T17:52:51.764Z,34.53
2023-05-04T17:55:19.225Z,34.91
2023-05-04T17:57:46.442Z,35.07
2023-05-04T18:00:13.979Z,35.27
2023-05-04T18:02:41.847Z,35.46
2023-05-04T18:05:09.304Z,35.57
2023-05-04T18:07:36.763Z,35.81
2023-05-04T18:10:04.087Z,35.91
2023-05-04T18:12:31.559Z,36.13
2023-05-04T18:14:58.752Z,36.14
2023-05-04T18:17:27.393Z,36.67
2023-05-04T18:19:54.583Z,37.02
2023-05-04T18:22:22.695Z,37.48
2023-05-04T18:24:49.925Z,37.62
2023-05-04T18:27:17.282Z,37.59
2023-05-04T18:29:44.421Z,37.91
2023-05-04T18:32:11.791Z,38.06
2023-05-04T18:34:39.041Z,38.15
2023-05-04T18:37:07.088Z,38.22
2023-05-04T18:39:34.343Z,38.32
2023-05-04T18:42:01.940Z,38.25
2023-05-04T18:44:28.965Z,38.30
2023-05-04T18:46:56.932Z,38.35
2023-05-04T18:49:24.769Z,38.40
2023-05-04T18:51:52.087Z,38.62
2023-05-04T18:54:19.165Z,38.73
2023-05-04T18:56:46.467Z,38.82
2023-05-04T18:59:13.857Z,39.03
2023-05-04T19:01:41.417Z,39.41
2023-05-04T19:04:08.866Z,39.69
2023-05-04T19:06:36.190Z,39.96
2023-05-04T19:09:03.616Z,40.04
2023-05-04T19:11:30.797Z,40.21
2023-05-04T19:13:58.210Z,40.33
2023-05-04T19:16:27.286Z,40.47
2023-05-04T19:18:55.669Z,40.61
2023-05-04T19:21:23.104Z,40.78
2023-05-04T19:23:50.552Z,40.88
2023-05-04T19:26:17.850Z,41.12
2023-05-04T19:28:44.988Z,41.19
2023-05-04T19:31:12.305Z,41.34
2023-05-04T19:33:47.803Z,41.47
2023-05-04T19:36:17.249Z,41.60
2023-05-04T19:38:44.213Z,42.01
2023-05-04T19:41:11.497Z,42.11
2023-05-04T19:43:38.907Z,42.04
2023-05-04T19:46:06.659Z,42.04
2023-05-04T19:48:33.639Z,42.20
2023-05-04T19:51:01.251Z,42.42
2023-05-04T19:53:28.231Z,42.60
2023-05-04T19:55:55.882Z,42.68
2023-05-04T19:58:26.160Z,42.71
2023-05-04T20:00:53.988Z,42.74
2023-05-04T20:03:20.995Z,42.95
2023-05-04T20:05:50.991Z,43.15
2023-05-04T20:08:19.287Z,43.27
2023-05-04T20:10:47.011Z,43.40
2023-05-04T20:13:14.028Z,43.70
2023-05-04T20:15:42.716Z,43.97
2023-05-04T20:18:09.963Z,43.95
2023-05-04T20:20:37.361Z,43.96
2023-05-04T20:23:04.502Z,44.03
2023-05-04T20:25:32.391Z,44.43
2023-05-04T20:27:59.425Z,44.75
2023-05-04T20:30:28.870Z,44.90
2023-05-04T20:32:56.196Z,44.97
2023-05-04T20:35:23.794Z,45.36
2023-05-04T20:37:50.874Z,45.51
2023-05-04T20:40:18.327Z,45.91
2023-05-04T20:42:45.360Z,46.22
2023-05-04T20:45:13.419Z,46.39
2023-05-04T20:47:40.391Z,46.64
2023-05-04T20:50:10.054Z,46.85
2023-05-04T20:52:38.540Z,46.99
2023-05-04T20:55:07.790Z,47.20
2023-05-04T20:57:35.519Z,47.42
2023-05-04T21:00:03.702Z,47.52
2023-05-04T21:02:31.252Z,47.32
2023-05-04T21:04:58.748Z,47.63
2023-05-04T21:07:25.710Z,47.95
2023-05-04T21:09:58.249Z,47.95
2023-05-04T21:12:25.860Z,48.45
2023-05-04T21:14:53.074Z,48.87
2023-05-04T21:17:20.145Z,49.30
2023-05-04T21:19:47.341Z,49.47
2023-05-04T21:22:17.617Z,49.73
2023-05-04T21:24:48.027Z,49.61
2023-05-04T21:27:15.238Z,49.58
2023-05-04T21:29:42.754Z,49.42
2023-05-04T21:32:10.030Z,49.54
2023-05-04T21:34:37.202Z,49.60
2023-05-04T21:37:04.291Z,49.76
2023-05-04T21:39:31.745Z,49.62
2023-05-04T21:41:58.951Z,49.85
2023-05-04T21:44:26.262Z,49.91
2023-05-04T21:46:53.428Z,50.16
2023-05-04T21:49:20.666Z,50.05
2023-05-04T21:51:47.809Z,50.15
2023-05-04T21:54:14.952Z,50.22
2023-05-04T21:56:42.082Z,50.15
2023-05-04T21:59:09.718Z,49.88
2023-05-04T22:01:36.718Z,50.25
2023-05-04T22:04:07.091Z,50.52
2023-05-04T22:06:34.380Z,50.51
2023-05-04T22:09:01.912Z,50.45
2023-05-04T22:11:29.685Z,50.71
2023-05-04T22:13:57.163Z,50.60
2023-05-04T22:16:24.792Z,50.97
2023-05-04T22:18:52.205Z,51.51
2023-05-04T22:21:19.422Z,51.67
2023-05-04T22:23:47.078Z,51.56
2023-05-04T22:26:13.972Z,51.57
2023-05-04T22:28:41.467Z,51.48
2023-05-04T22:31:08.430Z,51.91
2023-05-04T22:33:35.870Z,51.96
2023-05-04T22:36:02.725Z,52.18
2023-05-04T22:38:29.921Z,52.20
2023-05-04T22:40:56.968Z,52.42
2023-05-04T22:43:24.932Z,52.51
2023-05-04T22:45:51.951Z,53.09
2023-05-04T22:48:20.109Z,52.79
2023-05-04T22:50:48.715Z,52.93
2023-05-04T22:53:15.892Z,52.62
2023-05-04T22:55:42.933Z,52.39
2023-05-04T22:58:11.324Z,52.59
2023-05-04T23:00:38.327Z,52.74
2023-05-04T23:03:06.563Z,52.47
2023-05-04T23:05:33.459Z,52.68
2023-05-04T23:08:00.870Z,52.54
2023-05-04T23:10:27.764Z,52.31
2023-05-04T23:12:55.059Z,52.17
2023-05-04T23:15:24.660Z,52.08
2023-05-04T23:17:51.886Z,52.02
2023-05-04T23:20:19.233Z,52.07
2023-05-04T23:22:46.631Z,51.71
2023-05-04T23:25:13.849Z,51.83
2023-05-04T23:27:41.089Z,51.58
2023-05-04T23:30:09.212Z,51.54
2023-05-04T23:32:36.865Z,50.90
2023-05-04T23:35:04.454Z,50.78
2023-05-04T23:37:34.189Z,50.60
2023-05-04T23:40:01.727Z,50.19
2023-05-04T23:42:29.070Z,50.11
2023-05-04T23:44:56.404Z,49.99
2023-05-04T23:47:23.786Z,49.93
2023-05-04T23:49:50.770Z,50.06
2023-05-04T23:52:17.957Z,50.04
2023-05-04T23:54:45.013Z,50.14
2023-05-04T23:57:12.420Z,49.64
2023-05-04T23:59:40.478Z,49.60
